createdAt,value
2019-06-07T05:08:59.632Z,15.5
2019-06-07T05:10:09.789Z,15.43
2019-06-07T05:11:19.713Z,15.45
2019-06-07T05:12:30.106Z,15.5
2019-06-07T05:13:49.121Z,15.51
2019-06-07T05:14:59.251Z,15.55
2019-06-07T05:16:09.396Z,15.55
2019-06-07T05:17:19.597Z,15.61
2019-06-07T05:18:29.758Z,15.55
2019-06-07T05:19:49.548Z,15.7
2019-06-07T05:20:59.640Z,15.75
2019-06-07T05:22:10.424Z,15.68
2019-06-07T14:11:51.975Z,23.79
2019-06-07T14:13:02.144Z,23.9
2019-06-07T14:14:12.339Z,23.95
2019-06-07T14:15:24.326Z,24.07
2019-06-07T14:16:39.874Z,24.09
2019-06-07T14:17:50.040Z,24.13
2019-06-07T14:19:00.224Z,24.17
2019-06-07T14:20:11.549Z,24.22
2019-06-07T14:21:22.875Z,24.05
2019-06-07T14:22:36.046Z,24.13
2019-06-07T14:23:53.863Z,24.05
2019-06-07T14:25:04.038Z,23.94
2019-06-07T14:26:14.185Z,23.79
2019-06-07T14:27:25.832Z,23.77
2019-06-07T14:28:39.142Z,23.82
2019-06-07T14:29:49.298Z,23.73
2019-06-07T14:30:59.460Z,23.72
2019-06-07T14:32:09.631Z,23.7
2019-06-07T14:33:22.979Z,23.82
2019-06-07T14:34:37.623Z,23.8
2019-06-07T14:35:47.517Z,23.79
2019-06-07T14:36:57.716Z,23.76
2019-06-07T14:38:07.861Z,23.77
2019-06-07T14:39:18.080Z,23.73
2019-06-07T14:40:28.211Z,23.83
2019-06-07T14:41:39.835Z,23.77
2019-06-07T14:42:50.006Z,23.77
2019-06-07T14:44:00.151Z,23.7
2019-06-07T14:45:10.919Z,23.58
2019-06-07T14:46:21.077Z,23.69
2019-06-07T14:47:34.042Z,23.64
2019-06-07T14:48:44.527Z,23.61
2019-06-07T14:49:54.672Z,23.69
2019-06-07T14:51:04.320Z,23.64
2019-06-07T14:52:14.576Z,23.65
2019-06-07T14:53:24.733Z,23.65
2019-06-07T14:54:41.811Z,23.75
2019-06-07T14:55:52.027Z,23.82
2019-06-07T14:57:05.693Z,23.8
2019-06-07T14:58:15.830Z,23.76
2019-06-07T14:59:26.255Z,23.69
2019-06-07T15:00:39.455Z,23.85
2019-06-07T15:01:49.616Z,23.77
2019-06-07T15:02:59.835Z,23.77
2019-06-07T15:04:10.004Z,23.76
2019-06-07T15:05:20.170Z,23.82
2019-06-07T15:06:34.859Z,23.73
2019-06-07T15:07:45.752Z,23.72
2019-06-07T15:08:56.563Z,23.73
2019-06-07T15:10:06.766Z,23.75
2019-06-07T15:11:16.689Z,23.7
2019-06-07T15:12:33.093Z,23.76
2019-06-07T15:13:45.282Z,23.8
2019-06-07T15:14:55.444Z,23.69
2019-06-07T15:16:05.595Z,23.77
2019-06-07T15:17:15.765Z,23.76
2019-06-07T15:18:25.917Z,23.85
2019-06-07T15:19:39.391Z,23.8
2019-06-07T15:20:49.613Z,23.76
2019-06-07T15:21:59.351Z,23.76
2019-06-07T15:23:09.164Z,23.79
2019-06-07T15:24:19.323Z,23.87
2019-06-07T15:25:29.570Z,23.65
2019-06-07T15:26:41.344Z,23.69
2019-06-07T15:27:51.474Z,23.72
2019-06-07T15:29:01.652Z,23.6
2019-06-07T15:30:15.650Z,23.53
2019-06-07T15:31:26.047Z,23.55
2019-06-07T15:32:41.948Z,23.53
2019-06-07T15:33:52.104Z,23.58
2019-06-07T15:35:02.311Z,23.63
2019-06-07T15:36:12.220Z,23.64
2019-06-07T15:37:22.381Z,23.63
2019-06-07T15:38:37.033Z,23.69
2019-06-07T15:39:47.445Z,23.64
2019-06-07T15:40:57.605Z,23.72
2019-06-07T15:42:07.994Z,23.72
2019-06-07T15:43:17.890Z,23.65
2019-06-07T15:44:29.088Z,23.72
2019-06-07T15:45:40.369Z,23.72
2019-06-07T15:46:50.583Z,23.64
2019-06-07T15:48:00.761Z,23.61
2019-06-07T15:49:10.918Z,23.64
2019-06-07T15:50:21.065Z,23.69
2019-06-07T15:51:36.944Z,23.72
2019-06-07T15:52:48.826Z,23.75
2019-06-07T15:53:58.966Z,23.72
2019-06-07T15:55:09.168Z,23.69
2019-06-07T15:56:19.329Z,23.54
2019-06-07T15:57:30.942Z,23.5
2019-06-07T15:58:46.219Z,23.43
2019-06-07T15:59:56.487Z,23.43
2019-06-07T16:01:06.891Z,23.39
2019-06-07T16:02:17.082Z,23.35
2019-06-07T16:03:27.429Z,23.38
2019-06-07T16:04:44.456Z,23.38
2019-06-07T16:05:56.477Z,23.45
2019-06-07T16:07:06.645Z,23.42
2019-06-07T16:08:16.799Z,23.48
2019-06-07T16:09:26.943Z,23.36
2019-06-07T16:10:39.199Z,23.45
2019-06-07T16:11:50.968Z,23.46
2019-06-07T16:13:05.720Z,23.4
2019-06-07T16:14:15.863Z,23.48
2019-06-07T16:15:26.024Z,23.48
2019-06-07T16:16:38.918Z,23.46
2019-06-07T16:17:49.244Z,23.42
2019-06-07T16:18:59.185Z,23.35
2019-06-07T16:20:09.406Z,23.21
2019-06-07T16:21:19.428Z,23.23
2019-06-07T16:22:29.653Z,23.23
2019-06-07T16:23:43.977Z,23.18
2019-06-07T16:24:54.697Z,23.18
2019-06-07T16:26:04.855Z,23.16
2019-06-07T16:27:14.790Z,23.14
2019-06-07T16:28:25.065Z,23.16
2019-06-07T16:29:36.408Z,23.18
2019-06-07T16:30:48.130Z,23.21
2019-06-07T16:31:58.292Z,23.18
2019-06-07T16:33:08.457Z,22.99
2019-06-07T16:34:18.633Z,23.06
2019-06-07T16:35:28.813Z,23.02
2019-06-07T16:36:42.186Z,23.01
2019-06-07T16:37:57.104Z,22.99
2019-06-07T16:39:07.383Z,23.05
2019-06-07T16:40:17.562Z,23.09
2019-06-07T16:41:27.776Z,23.17
2019-06-07T16:42:38.747Z,23.18
2019-06-07T16:43:51.452Z,23.17
2019-06-07T16:45:01.629Z,23.21
2019-06-07T16:46:11.826Z,23.18
2019-06-07T16:47:21.990Z,23.05
2019-06-07T16:48:32.231Z,23.18
2019-06-07T16:49:44.960Z,23.11
2019-06-07T16:50:55.300Z,23.09
2019-06-07T16:52:05.519Z,23.13
2019-06-07T16:53:15.417Z,23.09
2019-06-07T16:54:25.593Z,23.09
2019-06-07T16:55:36.463Z,23.18
2019-06-07T16:56:53.872Z,23.18
2019-06-07T16:58:04.010Z,23.06
2019-06-07T16:59:14.170Z,23.03
2019-06-07T17:00:24.425Z,23.03
2019-06-07T17:01:34.644Z,23.02
2019-06-07T17:02:46.978Z,23.08
2019-06-07T17:03:57.371Z,23.08
2019-06-07T17:05:07.763Z,22.98
2019-06-07T17:06:17.919Z,22.96
2019-06-07T17:07:28.039Z,22.98
2019-06-07T17:08:38.205Z,23.01
2019-06-07T17:09:52.203Z,23.02
2019-06-07T17:11:02.187Z,23.03
2019-06-07T17:12:12.410Z,23.08
2019-06-07T17:13:38.141Z,23.02
2019-06-07T17:14:49.492Z,23.02
2019-06-07T17:15:59.655Z,22.9
2019-06-07T17:17:09.880Z,22.87
2019-06-07T17:18:20.033Z,22.93
2019-06-07T17:19:30.245Z,22.87
2019-06-07T17:20:41.502Z,22.87
2019-06-07T17:21:54.667Z,22.85
2019-06-07T17:23:04.961Z,22.85
2019-06-07T17:24:15.136Z,22.76
2019-06-07T17:25:25.263Z,22.8
2019-06-07T17:26:35.416Z,22.83
2019-06-07T17:27:50.157Z,22.79
2019-06-07T17:29:00.450Z,22.87
2019-06-07T17:30:10.602Z,22.82
2019-06-07T17:31:20.749Z,22.79
2019-06-07T17:32:44.686Z,22.7
2019-06-07T17:34:06.744Z,22.68
2019-06-07T17:35:16.941Z,22.68
2019-06-07T17:36:27.108Z,22.64
2019-06-07T17:37:37.020Z,22.65
2019-06-07T17:38:53.589Z,22.63
2019-06-07T17:40:03.493Z,22.65
2019-06-07T17:41:13.254Z,22.61
2019-06-07T17:42:23.450Z,22.6
2019-06-07T17:43:48.372Z,22.57
2019-06-07T17:45:07.535Z,22.6
2019-06-07T17:46:17.687Z,22.58
2019-06-07T17:47:27.844Z,22.63
2019-06-07T17:48:37.978Z,22.52
2019-06-07T17:49:50.440Z,22.6
2019-06-07T17:51:00.618Z,22.6
2019-06-07T17:52:10.817Z,22.53
2019-06-07T17:53:20.937Z,22.52
2019-06-07T17:54:31.098Z,22.53
2019-06-07T17:55:42.042Z,22.55
2019-06-07T17:56:55.565Z,22.58
2019-06-07T17:58:05.714Z,22.61
2019-06-07T17:59:15.886Z,22.43
2019-06-07T18:00:36.078Z,22.49
2019-06-07T18:02:15.442Z,22.49
2019-06-07T18:03:25.902Z,22.6
2019-06-07T18:04:36.038Z,22.45
2019-06-07T18:05:47.513Z,22.4
2019-06-07T18:06:59.137Z,22.42
2019-06-07T18:08:09.326Z,22.43
2019-06-07T18:09:19.491Z,22.39
2019-06-07T18:10:29.640Z,22.45
2019-06-07T18:11:39.797Z,22.39
2019-06-07T18:12:52.950Z,22.4
2019-06-07T18:14:15.337Z,22.33
2019-06-07T18:15:25.531Z,22.42
2019-06-07T18:16:35.731Z,22.38
2019-06-07T18:17:46.985Z,22.38
2019-06-07T18:18:58.408Z,22.31
2019-06-07T18:20:08.570Z,22.34
2019-06-07T18:21:18.741Z,22.3
2019-06-07T18:22:28.903Z,22.38
2019-06-07T18:23:39.063Z,22.38
2019-06-07T18:24:50.552Z,22.39
2019-06-07T18:26:01.306Z,22.24
2019-06-07T18:27:12.218Z,22.21
2019-06-07T18:28:22.612Z,22.24
2019-06-07T18:29:32.982Z,22.23
2019-06-07T18:30:42.797Z,22.26
2019-06-07T18:31:55.458Z,22.21
2019-06-07T18:33:08.119Z,22.21
2019-06-07T18:34:18.273Z,22.18
2019-06-07T18:35:28.443Z,22.18
2019-06-07T18:36:38.624Z,22.15
2019-06-07T18:37:49.420Z,22.05
2019-06-07T18:39:01.738Z,22.12
2019-06-07T18:40:11.946Z,22.12
2019-06-07T18:41:22.115Z,22.11
2019-06-07T18:42:32.294Z,22.13
2019-06-07T18:43:42.452Z,22.08
2019-06-07T18:44:53.872Z,22.06
2019-06-07T18:46:04.902Z,22.05
2019-06-07T18:47:15.074Z,22.03
2019-06-07T18:48:25.225Z,22.01
2019-06-07T18:49:38.641Z,22.02
2019-06-07T18:50:49.032Z,21.97
2019-06-07T18:52:00.654Z,21.91
2019-06-07T18:53:10.829Z,21.97
2019-06-07T18:54:21.023Z,21.91
2019-06-07T18:55:31.245Z,21.9
2019-06-07T18:56:41.445Z,21.91
2019-06-07T18:57:54.584Z,21.81
2019-06-07T18:59:06.243Z,21.87
2019-06-07T19:00:16.451Z,21.86
2019-06-07T19:01:26.674Z,21.79
2019-06-07T19:02:36.826Z,21.71
2019-06-07T19:03:50.294Z,21.72
2019-06-07T19:05:03.293Z,21.69
2019-06-07T19:06:13.498Z,21.65
2019-06-07T19:07:23.733Z,21.65
2019-06-07T19:08:34.014Z,21.58
2019-06-07T19:09:44.176Z,21.6
2019-06-07T19:10:56.554Z,21.57
2019-06-07T19:12:07.085Z,21.61
2019-06-07T19:13:17.307Z,21.58
2019-06-07T19:14:41.444Z,21.58
2019-06-07T19:15:51.864Z,21.54
2019-06-07T19:17:03.242Z,21.54
2019-06-07T19:18:13.399Z,21.5
2019-06-07T19:19:23.347Z,21.38
2019-06-07T19:20:33.286Z,21.41
2019-06-07T19:21:43.509Z,21.4
2019-06-07T19:22:56.337Z,21.48
2019-06-07T19:24:07.033Z,21.38
2019-06-07T19:25:17.467Z,21.31
2019-06-07T19:26:27.647Z,21.35
2019-06-07T19:27:38.218Z,21.4
2019-06-07T19:28:48.424Z,21.23
2019-06-07T19:30:00.795Z,21.3
2019-06-07T19:31:11.211Z,21.25
2019-06-07T19:32:21.398Z,21.18
2019-06-07T19:33:31.570Z,21.27
2019-06-07T19:34:57.655Z,21.23
2019-06-07T19:36:07.349Z,21.2
2019-06-07T19:37:17.501Z,21.19
2019-06-07T19:38:27.389Z,21.19
2019-06-07T19:39:37.315Z,21.12
2019-06-07T19:40:47.483Z,21.1
2019-06-07T19:42:00.072Z,21.12
2019-06-07T19:43:10.287Z,21.12
2019-06-07T19:44:20.449Z,21.1
2019-06-07T19:45:35.494Z,21.06
2019-06-07T19:46:45.730Z,21.12
2019-06-07T19:47:58.586Z,21.06
2019-06-07T19:49:08.882Z,20.98
2019-06-07T19:50:19.104Z,20.94
2019-06-07T19:51:29.270Z,20.86
2019-06-07T19:52:39.445Z,20.93
2019-06-07T19:53:49.664Z,20.9
2019-06-07T19:55:09.648Z,20.79
2019-06-07T19:56:20.249Z,20.88
2019-06-07T19:57:30.130Z,20.85
2019-06-07T19:58:40.565Z,20.86
2019-06-07T19:59:51.749Z,20.85
2019-06-07T20:01:04.846Z,20.78
2019-06-07T20:02:15.116Z,20.83
2019-06-07T20:03:25.301Z,20.81
2019-06-07T20:04:35.453Z,20.82
2019-06-07T20:05:45.654Z,20.76
2019-06-07T20:06:56.507Z,20.75
2019-06-07T20:08:10.463Z,20.72
2019-06-07T20:09:20.632Z,20.79
2019-06-07T20:10:30.848Z,20.78
2019-06-07T20:11:41.017Z,20.72
2019-06-07T20:12:51.299Z,20.73
2019-06-07T20:14:03.442Z,20.71
2019-06-07T20:15:32.523Z,20.63
2019-06-07T20:16:42.473Z,20.67
2019-06-07T20:17:52.730Z,20.61
2019-06-07T20:19:03.997Z,20.63
2019-06-07T20:20:16.914Z,20.58
2019-06-07T20:21:29.407Z,20.57
2019-06-07T20:22:39.597Z,20.51
2019-06-07T20:23:49.764Z,20.54
2019-06-07T20:25:01.234Z,20.53
2019-06-07T20:26:13.809Z,20.53
2019-06-07T20:27:23.943Z,20.54
2019-06-07T20:28:34.128Z,20.46
2019-06-07T20:29:44.303Z,20.48
2019-06-07T20:30:57.588Z,20.43
2019-06-07T20:32:11.415Z,20.45
2019-06-07T20:33:21.607Z,20.45
2019-06-07T20:34:31.845Z,20.43
2019-06-07T20:35:41.489Z,20.48
2019-06-07T20:36:51.413Z,20.45
2019-06-07T20:38:05.230Z,20.41
2019-06-07T20:39:17.282Z,20.35
2019-06-07T20:40:29.800Z,20.36
2019-06-07T20:41:39.968Z,20.46
2019-06-07T20:42:49.766Z,20.39
2019-06-07T20:44:01.334Z,20.41
2019-06-07T20:45:12.950Z,20.36
2019-06-07T20:46:37.957Z,20.38
2019-06-07T20:47:48.135Z,20.34
2019-06-07T20:48:58.334Z,20.34
2019-06-07T20:50:13.552Z,20.3
2019-06-07T20:51:23.858Z,20.31
2019-06-07T20:52:34.027Z,20.27
2019-06-07T20:53:44.709Z,20.27
2019-06-07T20:54:54.875Z,20.2
2019-06-07T20:56:08.975Z,20.16
2019-06-07T20:57:19.369Z,20.23
2019-06-07T20:58:29.531Z,20.2
2019-06-07T20:59:39.703Z,20.08
2019-06-07T21:00:49.864Z,20.17
2019-06-07T21:02:01.158Z,20.03
2019-06-07T21:03:14.467Z,20.04
2019-06-07T21:04:24.621Z,20.05
2019-06-07T21:05:34.783Z,20
2019-06-07T21:06:44.936Z,20.04
2019-06-07T21:07:55.106Z,19.97
2019-06-07T21:09:09.617Z,19.93
2019-06-07T21:10:19.997Z,19.89
2019-06-07T21:11:30.260Z,19.95
2019-06-07T21:12:40.405Z,19.89
2019-06-07T21:13:50.620Z,19.9
2019-06-07T21:15:06.208Z,19.89
2019-06-07T21:16:20.882Z,19.83
2019-06-07T21:17:31.025Z,19.78
2019-06-07T21:18:41.191Z,19.76
2019-06-07T21:19:51.709Z,19.85
2019-06-07T21:21:02.746Z,19.85
2019-06-07T21:22:13.928Z,19.76
2019-06-07T21:23:24.085Z,19.8
2019-06-07T21:24:34.239Z,19.83
2019-06-07T21:25:44.410Z,19.82
2019-06-07T21:26:58.003Z,19.82
2019-06-07T21:28:11.916Z,19.76
2019-06-07T21:29:22.180Z,19.86
2019-06-07T21:30:32.338Z,19.83
2019-06-07T21:31:42.492Z,19.86
2019-06-07T21:32:52.669Z,19.71
2019-06-07T21:34:07.495Z,19.79
2019-06-07T21:35:21.875Z,19.76
2019-06-07T21:36:31.995Z,19.73
2019-06-07T21:37:42.151Z,19.74
2019-06-07T21:38:52.531Z,19.76
2019-06-07T21:40:04.047Z,19.79
2019-06-07T21:41:17.461Z,19.82
2019-06-07T21:42:27.638Z,19.68
2019-06-07T21:43:37.790Z,19.71
2019-06-07T21:44:48.030Z,19.67
2019-06-07T21:46:20.357Z,19.71
2019-06-07T21:47:30.793Z,19.74
2019-06-07T21:48:40.957Z,19.7
2019-06-07T21:49:51.091Z,19.73
2019-06-07T21:51:02.192Z,19.74
2019-06-07T21:52:13.611Z,19.73
2019-06-07T21:53:23.797Z,19.65
2019-06-07T21:54:33.947Z,19.74
2019-06-07T21:55:44.109Z,19.71
2019-06-07T21:56:53.994Z,19.82
2019-06-07T21:58:06.940Z,19.83
2019-06-07T21:59:18.286Z,19.86
2019-06-07T22:00:28.417Z,19.88
2019-06-07T22:01:38.656Z,19.71
2019-06-07T22:02:48.827Z,19.82
2019-06-07T22:03:58.957Z,19.79
2019-06-07T22:05:12.068Z,19.71
2019-06-07T22:06:22.323Z,19.65
2019-06-07T22:07:32.096Z,19.73
2019-06-07T22:08:42.248Z,19.71
2019-06-07T22:09:52.705Z,19.58
2019-06-07T22:11:03.746Z,19.7
2019-06-07T22:12:16.893Z,19.65
2019-06-07T22:13:27.036Z,19.55
2019-06-07T22:14:37.183Z,19.46
2019-06-07T22:15:47.333Z,19.53
2019-06-07T22:16:57.451Z,19.55
2019-06-07T22:18:10.821Z,19.61
2019-06-07T22:19:22.118Z,19.55
2019-06-07T22:20:32.267Z,19.49
2019-06-07T22:21:42.413Z,19.53
2019-06-07T22:23:08.902Z,19.52
2019-06-07T22:24:20.236Z,19.49
2019-06-07T22:25:30.402Z,19.48
2019-06-07T22:26:40.566Z,19.5
2019-06-07T22:29:06.431Z,19.56
2019-06-07T22:30:18.751Z,19.56
2019-06-07T22:32:51.310Z,19.48
2019-06-07T22:34:03.680Z,19.35
2019-06-07T22:35:17.441Z,19.3
2019-06-07T22:36:28.806Z,19.13
2019-06-07T22:37:38.960Z,19.13
2019-06-07T22:38:49.141Z,19.06
2019-06-07T22:39:59.312Z,18.87
2019-06-07T22:41:09.730Z,18.69
2019-06-07T22:42:21.841Z,18.55
2019-06-07T22:43:31.999Z,18.32
2019-06-07T22:44:44.909Z,18.05
2019-06-07T22:45:55.094Z,17.61
2019-06-07T22:47:05.458Z,17.24
2019-06-07T22:48:17.507Z,17.01
2019-06-07T22:49:27.811Z,16.74
2019-06-07T22:50:37.974Z,16.51
2019-06-07T22:51:48.163Z,16.49
2019-06-07T22:53:15.502Z,16.42
2019-06-07T22:54:25.685Z,16.32
2019-06-07T22:55:35.817Z,16.35
2019-06-07T22:56:45.935Z,16.19
2019-06-07T22:57:56.097Z,16.31
2019-06-07T22:59:06.267Z,16.28
2019-06-07T23:00:25.894Z,16.32
2019-06-07T23:01:36.016Z,16.24
2019-06-07T23:02:45.780Z,16.21
2019-06-07T23:03:55.928Z,16.29
2019-06-07T23:05:10.919Z,16.27
2019-06-07T23:06:23.569Z,16.28
2019-06-07T23:07:33.711Z,16.21
2019-06-07T23:08:43.839Z,16.2
2019-06-07T23:09:53.601Z,16.25
2019-06-07T23:11:03.714Z,16.28
2019-06-07T23:12:15.568Z,16.17
2019-06-07T23:13:25.678Z,16.31
2019-06-07T23:14:35.805Z,16.19
2019-06-07T23:15:46.049Z,16.29
2019-06-07T23:17:00.626Z,16.31
2019-06-07T23:18:11.817Z,16.29
2019-06-07T23:19:22.981Z,16.25
2019-06-07T23:20:33.094Z,16.21
2019-06-07T23:21:43.262Z,16.24
2019-06-07T23:22:53.448Z,16.27
2019-06-07T23:24:03.592Z,16.27
2019-06-07T23:25:18.721Z,16.25
2019-06-07T23:26:32.270Z,16.2
2019-06-07T23:27:42.054Z,16.16
2019-06-07T23:28:52.175Z,16.17
2019-06-07T23:30:08.275Z,16.13
2019-06-07T23:31:21.439Z,16.16
2019-06-07T23:32:31.575Z,16.16
2019-06-07T23:33:41.693Z,16.11
2019-06-07T23:34:51.816Z,16.02
2019-06-07T23:36:01.973Z,16.04
2019-06-07T23:37:13.446Z,15.98
2019-06-07T23:38:26.082Z,15.98
2019-06-07T23:39:36.218Z,16.04
2019-06-07T23:40:46.358Z,16.01
2019-06-07T23:41:56.479Z,15.95
2019-06-07T23:43:06.587Z,16.01
2019-06-07T23:44:19.252Z,15.91
2019-06-07T23:45:29.453Z,16.01
2019-06-07T23:46:39.559Z,15.99
2019-06-07T23:47:49.325Z,16.01
2019-06-07T23:48:59.459Z,15.99
2019-06-07T23:50:09.660Z,15.98
2019-06-07T23:51:22.647Z,15.96
2019-06-07T23:52:32.773Z,15.94
2019-06-07T23:53:42.640Z,15.99
2019-06-07T23:54:52.750Z,15.94
2019-06-07T23:56:02.861Z,15.95
2019-06-07T23:57:14.516Z,15.92
2019-06-07T23:58:28.104Z,15.95
2019-06-07T23:59:38.230Z,15.92
